Meteo Giornale » Osservazioni meteo Italia » Decimomannu

ore: 15:55 - Osservazioni Meteo Decimomannu
Lat. 39° 21' N Lon. 8° 58' E Alt. 29 metri s.l.m.

sereno Europe/Rome

30 °C

Sereno

Temp. 24 Ore

14 °C

30 °C

Sud/Sud-Est

25.9 Km/h

Dew point 12 °C

Umidità 33 %

Visibilità  10 Km

Il sole sorge alle ore 05:59

Il sole tramonta alle ore 20:43

Data e Ora Cielo e Fenomeni T °C DP °C Um. % Pres. hPa Vis. km Vento km/h
Oggi h: 15:55 sereno Sereno 30 12 33 1018 10 S/SE 25.9
Oggi h: 14:55 sereno Sereno 29 12 35 1018 10 S/SE 24
Oggi h: 13:55 sereno Sereno 30 13 35 1018 10 S/SE 24
Oggi h: 12:55 sereno Sereno 30 11 30 1019 10 S/SE 24
Oggi h: 11:55 sereno Sereno 30 12 33 1019 10 S 18.5
Oggi h: 10:55 sereno Sereno 30 13 35 1018 10 N 5.5
Oggi h: 09:55 sereno Sereno 27 16 50 1019 10 N 3.7
Oggi h: 08:55 sereno Sereno 22 18 78 1019 10 N 3.7
Oggi h: 07:55 sereno Sereno 18 17 93 1019 10 N 3.7
Oggi h: 06:55 sereno Sereno 16 15 93 1018 10 N 0
Oggi h: 05:55 sereno Sereno 14 13 93 1018 10 N 5.5
Oggi h: 04:55 sereno Sereno 15 14 93 1019 10 N 1.8
Oggi h: 03:55 sereno Sereno 15 14 93 1019 10 N 0
Oggi h: 02:55 sereno Sereno 17 16 93 1019 10 N 3.7
Oggi h: 01:55 sereno Sereno 18 17 93 1019 10 N 0
Ieri h: 23:55 sereno Sereno 19 16 82 1018 10 N 3.7
Ieri h: 21:55 sereno Sereno 20 16 77 1018 10 N 1.8
Ieri h: 20:55 sereno Sereno 22 13 56 1015 10 SE 11.1
Ieri h: 19:55 sereno Sereno 24 15 57 1017 10 SE 14.8
Ieri h: 18:55 sereno Sereno 26 13 44 1016 10 S/SE 22.2
Ieri h: 17:55 sereno Sereno 27 12 39 1016 10 S/SE 27.8
Ieri h: 16:55 sereno Sereno 29 12 35 1017 10 S/SE 25.9